Time;durP1;ratioP1;P1;durP2;ratioP2;P2;SDS_P1;SDS_P2;PMS_P1;PMS_P2;Temp;Humidity;BMP_temperature;BMP_pressure;BME280_temperature;BME280_humidity;BME280_pressure;Samples;Min_cycle;Max_cycle;Signal;HPM_P1;HPM_P2
2023/06/12 00:02:13;;;;;;;6.18;4.43;;;23.40;78.90;;;;;;5073145;28;20174;-47
2023/06/12 00:04:39;;;;;;;4.45;3.97;;;23.20;78.50;;;;;;5072781;28;20678;-47
2023/06/12 00:07:05;;;;;;;7.20;4.45;;;22.90;78.70;;;;;;5072564;28;20222;-48
2023/06/12 00:09:32;;;;;;;7.13;4.80;;;22.90;79.40;;;;;;5073403;28;20182;-48
2023/06/12 00:11:58;;;;;;;7.43;5.00;;;22.90;78.90;;;;;;5072050;28;20208;-48
2023/06/12 00:14:24;;;;;;;5.20;4.20;;;22.70;78.80;;;;;;5072664;28;20170;-48
2023/06/12 00:16:49;;;;;;;5.97;4.22;;;22.70;79.00;;;;;;5072326;28;20579;-48
2023/06/12 00:19:15;;;;;;;7.85;4.57;;;22.70;79.90;;;;;;5072270;28;20184;-48
2023/06/12 00:21:41;;;;;;;7.55;4.55;;;22.70;83.40;;;;;;5072358;28;20174;-47
2023/06/12 00:24:08;;;;;;;8.57;5.97;;;22.60;83.10;;;;;;5072148;28;20258;-48
2023/06/12 00:26:35;;;;;;;7.40;5.10;;;22.50;82.60;;;;;;5072794;28;20170;-47
2023/06/12 00:29:01;;;;;;;10.77;7.70;;;22.50;82.50;;;;;;5072955;28;20174;-48
2023/06/12 00:31:27;;;;;;;7.97;5.65;;;22.50;83.10;;;;;;5072260;28;20173;-48
2023/06/12 00:33:52;;;;;;;11.25;6.88;;;22.30;85.00;;;;;;5072275;28;20178;-48
2023/06/12 00:36:18;;;;;;;6.68;4.70;;;22.10;88.00;;;;;;5072554;28;20166;-48
2023/06/12 00:38:43;;;;;;;7.03;5.18;;;22.00;91.40;;;;;;5072187;28;20178;-47
2023/06/12 00:41:09;;;;;;;6.57;4.65;;;22.10;91.70;;;;;;5071972;28;20208;-49
2023/06/12 00:43:35;;;;;;;5.15;4.65;;;;;;;;;;5071729;28;20213;-47
2023/06/12 00:46:01;;;;;;;5.50;4.32;;;22.10;96.00;;;;;;5072447;28;20170;-48
2023/06/12 00:48:27;;;;;;;5.88;4.13;;;21.60;96.70;;;;;;5053679;28;20166;-48
2023/06/12 00:50:52;;;;;;;5.47;4.03;;;21.80;99.30;;;;;;5071985;28;20664;-48
2023/06/12 00:53:19;;;;;;;5.00;3.90;;;21.60;99.90;;;;;;5071872;28;20162;-48
2023/06/12 00:55:44;;;;;;;8.80;4.20;;;21.50;99.90;;;;;;5071954;28;20667;-47
2023/06/12 00:58:11;;;;;;;4.35;3.95;;;21.40;99.90;;;;;;5054085;28;20173;-47
2023/06/12 01:00:40;;;;;;;6.13;3.88;;;21.40;99.90;;;;;;5071949;28;20217;-47
2023/06/12 01:03:09;;;;;;;5.80;4.10;;;21.20;99.90;;;;;;5071635;28;20164;-48
2023/06/12 01:05:37;;;;;;;7.55;4.47;;;21.30;99.90;;;;;;5071957;28;20176;-48
2023/06/12 01:08:34;;;;;;;7.38;4.30;;;21.30;99.90;;;;;;5071998;28;20206;-48
2023/06/12 01:11:08;;;;;;;5.65;4.18;;;20.90;99.90;;;;;;5072061;28;20178;-48
2023/06/12 01:13:34;;;;;;;7.07;4.35;;;;;;;;;;5071831;28;20165;-48
2023/06/12 01:16:00;;;;;;;6.88;4.68;;;21.10;99.90;;;;;;5072161;28;20177;-48
2023/06/12 01:18:26;;;;;;;11.18;4.57;;;20.90;99.90;;;;;;5071613;28;20166;-47
2023/06/12 01:20:55;;;;;;;4.55;4.10;;;21.20;99.90;;;;;;5071757;28;20210;-47
2023/06/12 01:23:33;;;;;;;7.93;4.25;;;21.00;99.90;;;;;;5071481;28;20158;-47
2023/06/12 01:26:25;;;;;;;4.88;4.03;;;21.10;99.90;;;;;;5071536;28;20201;-47
2023/06/12 01:28:57;;;;;;;6.68;4.10;;;21.00;99.90;;;;;;5071496;28;20185;-47
2023/06/12 01:31:31;;;;;;;9.07;4.00;;;20.70;99.90;;;;;;5071410;28;20162;-47
2023/06/12 01:34:10;;;;;;;4.90;4.43;;;21.20;99.90;;;;;;5071697;28;20173;-48
2023/06/12 01:36:41;;;;;;;8.55;4.40;;;21.20;99.90;;;;;;5070793;28;20193;-47
2023/06/12 01:39:08;;;;;;;6.53;4.28;;;21.00;99.90;;;;;;5071383;28;20165;-48
2023/06/12 01:41:34;;;;;;;8.70;4.82;;;21.10;99.90;;;;;;5071744;28;20227;-48
2023/06/12 01:44:09;;;;;;;7.45;3.90;;;21.10;99.90;;;;;;5071784;28;20252;-48
2023/06/12 01:46:35;;;;;;;5.63;4.10;;;20.80;99.90;;;;;;5071256;28;20199;-49
2023/06/12 01:49:04;;;;;;;6.65;4.32;;;21.00;99.90;;;;;;5071682;28;20188;-49
2023/06/12 01:51:29;;;;;;;5.70;3.83;;;21.00;99.90;;;;;;5071978;28;20169;-50
2023/06/12 01:53:55;;;;;;;5.40;4.53;;;20.90;99.90;;;;;;5071220;28;20180;-50
2023/06/12 01:56:25;;;;;;;7.97;3.78;;;20.80;99.90;;;;;;5071491;28;20629;-49
2023/06/12 01:58:52;;;;;;;6.93;4.63;;;20.80;99.90;;;;;;5071139;28;20537;-48
2023/06/12 02:01:18;;;;;;;6.20;3.83;;;;;;;;;;5071001;28;20680;-50
2023/06/12 02:03:48;;;;;;;6.03;3.85;;;21.00;99.90;;;;;;5071361;28;20265;-49
2023/06/12 02:06:17;;;;;;;5.55;4.35;;;20.60;99.90;;;;;;5071347;28;20174;-48
2023/06/12 02:08:43;;;;;;;8.23;4.30;;;21.00;99.90;;;;;;5070917;28;20217;-48
2023/06/12 02:11:09;;;;;;;8.52;4.50;;;20.60;99.90;;;;;;5071083;28;20166;-49
2023/06/12 02:13:35;;;;;;;4.28;3.75;;;20.50;99.90;;;;;;5070956;28;20638;-48
2023/06/12 02:16:05;;;;;;;6.45;3.88;;;20.40;99.90;;;;;;5071695;28;20174;-49
2023/06/12 02:18:31;;;;;;;4.65;4.25;;;20.60;99.90;;;;;;5071424;28;20683;-50
2023/06/12 02:20:56;;;;;;;5.95;4.75;;;20.60;99.90;;;;;;5070834;28;20201;-49
2023/06/12 02:23:22;;;;;;;8.23;4.75;;;20.20;99.90;;;;;;5070920;28;20162;-49
2023/06/12 02:25:47;;;;;;;7.22;4.60;;;20.30;99.90;;;;;;5070900;28;20517;-49
2023/06/12 02:28:13;;;;;;;5.15;4.38;;;20.30;99.90;;;;;;5071131;28;20237;-49
2023/06/12 02:30:38;;;;;;;7.10;4.53;;;20.40;99.90;;;;;;5071164;28;20170;-49
2023/06/12 02:33:09;;;;;;;9.07;4.70;;;20.20;99.90;;;;;;5070837;28;20162;-48
2023/06/12 02:35:39;;;;;;;31.30;13.13;;;20.10;99.90;;;;;;5071080;28;20178;-49
2023/06/12 02:38:04;;;;;;;35.03;15.95;;;20.30;99.90;;;;;;5070783;28;20162;-48
2023/06/12 02:40:30;;;;;;;57.35;26.25;;;20.30;99.90;;;;;;5071142;28;20562;-49
2023/06/12 02:42:55;;;;;;;108.93;56.53;;;20.20;99.90;;;;;;5070767;28;20170;-49
2023/06/12 02:45:22;;;;;;;84.00;42.50;;;20.10;99.90;;;;;;5070838;28;20228;-49
2023/06/12 02:47:47;;;;;;;74.70;37.72;;;20.30;99.90;;;;;;5071914;28;20170;-48
2023/06/12 02:50:13;;;;;;;84.18;40.75;;;20.20;99.90;;;;;;5074193;28;20663;-50
2023/06/12 02:52:40;;;;;;;114.97;59.55;;;20.00;99.90;;;;;;5074225;28;20166;-49
2023/06/12 02:55:06;;;;;;;32.13;18.08;;;20.20;99.90;;;;;;5074423;28;20275;-49
2023/06/12 02:57:32;;;;;;;20.33;10.27;;;20.20;99.90;;;;;;5074537;28;20162;-49
2023/06/12 02:59:58;;;;;;;5.30;4.80;;;20.30;99.90;;;;;;5074186;28;20270;-48
2023/06/12 03:02:23;;;;;;;8.43;5.75;;;20.10;99.90;;;;;;5074026;28;20166;-49
2023/06/12 03:04:49;;;;;;;6.53;4.90;;;20.20;99.90;;;;;;5074012;28;20299;-49
2023/06/12 03:07:16;;;;;;;11.90;4.75;;;20.30;99.90;;;;;;5073752;28;20202;-49
2023/06/12 03:09:43;;;;;;;9.95;5.50;;;20.20;99.90;;;;;;5073910;28;20159;-49
2023/06/12 03:12:09;;;;;;;6.28;5.10;;;19.90;99.90;;;;;;5073776;28;20174;-49
2023/06/12 03:14:36;;;;;;;5.93;3.80;;;19.70;99.90;;;;;;5073856;28;20207;-48
2023/06/12 03:17:02;;;;;;;8.30;4.03;;;19.60;99.90;;;;;;5074462;28;20330;-48
2023/06/12 03:19:27;;;;;;;8.85;3.97;;;19.50;99.90;;;;;;5073633;28;20649;-49
2023/06/12 03:21:53;;;;;;;6.55;4.03;;;19.40;99.90;;;;;;5073668;28;20243;-49
2023/06/12 03:24:20;;;;;;;6.10;4.28;;;19.60;99.90;;;;;;5073657;28;20171;-50
2023/06/12 03:26:46;;;;;;;5.72;4.00;;;19.60;99.90;;;;;;5073894;28;20174;-49
2023/06/12 03:29:11;;;;;;;14.88;9.23;;;19.60;99.90;;;;;;5073523;28;20158;-48
2023/06/12 03:31:37;;;;;;;12.45;5.80;;;19.50;99.90;;;;;;5073469;28;20192;-48
2023/06/12 03:34:03;;;;;;;11.32;4.75;;;;;;;;;;5073663;28;20166;-47
2023/06/12 03:36:33;;;;;;;6.45;4.28;;;19.40;99.90;;;;;;5073898;28;20637;-49
2023/06/12 03:39:00;;;;;;;4.55;4.07;;;19.60;99.90;;;;;;5073922;28;20178;-50
2023/06/12 03:41:27;;;;;;;8.68;4.05;;;19.50;99.90;;;;;;5073445;28;20304;-49
2023/06/12 03:43:53;;;;;;;10.57;4.47;;;;;;;;;;5073243;28;20583;-49
2023/06/12 03:46:18;;;;;;;7.28;4.45;;;19.20;99.90;;;;;;5073277;28;20193;-49
2023/06/12 03:48:44;;;;;;;5.00;4.47;;;19.50;99.90;;;;;;5073128;28;20545;-49
2023/06/12 03:51:10;;;;;;;7.65;4.60;;;19.80;99.90;;;;;;5073160;28;20621;-48
2023/06/12 03:53:38;;;;;;;6.32;4.60;;;19.50;99.90;;;;;;5073246;28;20173;-48
2023/06/12 03:56:04;;;;;;;5.25;4.20;;;19.40;99.90;;;;;;5073271;28;20235;-48
2023/06/12 03:58:30;;;;;;;5.38;4.68;;;19.20;99.90;;;;;;5073160;28;20215;-48
2023/06/12 04:00:56;;;;;;;9.90;4.70;;;19.00;99.90;;;;;;5072910;28;20701;-48
2023/06/12 04:03:24;;;;;;;23.08;15.52;;;19.20;99.90;;;;;;5073000;28;20169;-48
2023/06/12 04:05:50;;;;;;;12.15;6.43;;;19.30;99.90;;;;;;5072936;28;20716;-47
2023/06/12 04:08:16;;;;;;;13.07;8.20;;;19.20;99.90;;;;;;5072656;28;20298;-48
2023/06/12 04:10:43;;;;;;;7.20;5.45;;;19.40;99.90;;;;;;5072682;28;20253;-48
2023/06/12 04:13:08;;;;;;;8.30;6.22;;;19.80;99.90;;;;;;5072624;28;20173;-50
2023/06/12 04:15:36;;;;;;;6.88;5.57;;;19.50;99.90;;;;;;5072605;28;20162;-49
2023/06/12 04:18:02;;;;;;;6.32;4.85;;;19.50;99.90;;;;;;5073232;28;20201;-48
2023/06/12 04:20:29;;;;;;;5.57;4.63;;;19.30;99.90;;;;;;5072679;28;20209;-48
2023/06/12 04:22:56;;;;;;;6.10;4.95;;;19.40;99.90;;;;;;5072358;28;20255;-49
2023/06/12 04:25:27;;;;;;;5.82;4.97;;;19.60;99.90;;;;;;5072565;28;20287;-49
2023/06/12 04:27:53;;;;;;;9.07;4.53;;;19.50;99.90;;;;;;5072287;28;20170;-49
2023/06/12 04:30:21;;;;;;;9.32;4.90;;;19.40;99.90;;;;;;5072339;28;20166;-49
2023/06/12 04:32:47;;;;;;;10.70;4.50;;;19.70;99.90;;;;;;5072461;28;20170;-48
2023/06/12 04:35:16;;;;;;;6.90;4.53;;;20.00;99.90;;;;;;5071846;28;20581;-49
2023/06/12 04:37:42;;;;;;;8.57;4.93;;;20.20;99.90;;;;;;5072335;28;20177;-49
2023/06/12 04:40:11;;;;;;;9.95;4.90;;;20.20;99.90;;;;;;5071570;28;20548;-49
2023/06/12 04:42:37;;;;;;;6.88;4.55;;;20.60;99.90;;;;;;5071508;28;20197;-48
2023/06/12 04:45:04;;;;;;;7.05;4.80;;;20.50;99.90;;;;;;5072494;28;20198;-48
2023/06/12 04:47:30;;;;;;;9.98;5.20;;;20.30;99.90;;;;;;5072540;28;20185;-48
2023/06/12 04:49:57;;;;;;;6.10;4.63;;;;;;;;;;5072212;28;20178;-48
2023/06/12 04:52:24;;;;;;;6.07;5.05;;;20.70;99.90;;;;;;5072082;28;20265;-47
2023/06/12 04:54:52;;;;;;;14.82;4.70;;;20.80;99.90;;;;;;5072156;28;20219;-48
2023/06/12 04:57:18;;;;;;;6.15;4.72;;;21.00;99.90;;;;;;5072098;28;20176;-48
2023/06/12 04:59:45;;;;;;;10.05;4.82;;;20.80;99.90;;;;;;5071911;28;20277;-48
2023/06/12 05:02:12;;;;;;;6.53;4.80;;;21.10;99.90;;;;;;5071965;28;20181;-48
2023/06/12 05:04:41;;;;;;;7.30;4.68;;;20.90;99.90;;;;;;5071725;28;20211;-48
2023/06/12 05:07:14;;;;;;;9.73;5.50;;;21.00;99.90;;;;;;5071868;28;20256;-48
2023/06/12 05:09:40;;;;;;;8.57;5.72;;;21.20;99.90;;;;;;5071294;28;20634;-49
2023/06/12 05:12:06;;;;;;;9.13;5.13;;;21.50;99.90;;;;;;5071282;28;20180;-48
2023/06/12 05:14:34;;;;;;;8.45;5.75;;;21.70;99.90;;;;;;5072329;28;20170;-48
2023/06/12 05:17:00;;;;;;;7.40;5.55;;;21.50;99.90;;;;;;5072325;28;20253;-49
2023/06/12 05:19:26;;;;;;;9.25;5.05;;;21.40;99.90;;;;;;5071425;28;20663;-48
2023/06/12 05:21:52;;;;;;;8.35;5.47;;;21.70;99.90;;;;;;5071531;28;20257;-48
2023/06/12 05:24:17;;;;;;;7.18;4.90;;;22.00;99.90;;;;;;5071537;28;20194;-48
2023/06/12 05:26:43;;;;;;;11.95;5.63;;;21.90;99.90;;;;;;5071573;28;20664;-48
2023/06/12 05:29:10;;;;;;;9.63;5.03;;;;;;;;;;5053544;28;20182;-49
2023/06/12 05:31:35;;;;;;;6.80;5.13;;;22.00;99.90;;;;;;5071764;28;20265;-47
2023/06/12 05:34:01;;;;;;;5.80;5.20;;;22.50;99.90;;;;;;5071789;28;20193;-48
2023/06/12 05:36:26;;;;;;;8.60;5.53;;;22.50;99.90;;;;;;5071332;28;20166;-47
2023/06/12 05:38:52;;;;;;;6.70;5.40;;;22.40;99.90;;;;;;5071306;28;20166;-47
2023/06/12 05:41:18;;;;;;;8.95;5.95;;;;;;;;;;5071105;28;20213;-47
2023/06/12 05:43:45;;;;;;;7.03;5.38;;;22.60;99.90;;;;;;5071180;28;20188;-47
2023/06/12 05:46:12;;;;;;;8.07;5.53;;;22.60;99.90;;;;;;5071156;28;20234;-47
2023/06/12 05:48:37;;;;;;;9.15;5.32;;;22.60;99.90;;;;;;5071533;28;20284;-48
2023/06/12 05:51:05;;;;;;;7.28;5.65;;;22.60;99.90;;;;;;5071357;28;20214;-47
2023/06/12 05:53:32;;;;;;;9.02;5.88;;;22.70;99.90;;;;;;5071808;28;20170;-48
2023/06/12 05:55:57;;;;;;;8.05;5.65;;;22.70;99.90;;;;;;5053752;28;20169;-48
2023/06/12 05:58:23;;;;;;;9.52;5.60;;;22.90;99.90;;;;;;5071245;28;20534;-48
2023/06/12 06:00:49;;;;;;;7.32;4.93;;;22.80;99.90;;;;;;5071121;28;20713;-47
2023/06/12 06:03:18;;;;;;;8.82;5.75;;;22.90;99.90;;;;;;5071325;28;20577;-48
2023/06/12 06:05:43;;;;;;;7.40;5.68;;;22.60;99.90;;;;;;5071372;28;20174;-48
2023/06/12 06:08:10;;;;;;;7.90;5.10;;;22.90;99.90;;;;;;5070990;28;20289;-48
2023/06/12 06:10:36;;;;;;;9.15;5.70;;;22.90;99.90;;;;;;5070972;28;20552;-47
2023/06/12 06:13:01;;;;;;;11.85;5.57;;;23.00;99.90;;;;;;5071463;28;20159;-47
2023/06/12 06:15:27;;;;;;;9.55;5.43;;;23.10;99.90;;;;;;5070967;28;20541;-47
2023/06/12 06:17:52;;;;;;;7.75;5.45;;;22.90;99.90;;;;;;5070968;28;20649;-47
2023/06/12 06:20:18;;;;;;;8.48;6.03;;;23.20;99.90;;;;;;5071147;28;20210;-48
2023/06/12 06:22:44;;;;;;;9.93;5.43;;;23.20;99.90;;;;;;5073812;28;20170;-47
2023/06/12 06:25:09;;;;;;;7.90;5.45;;;22.80;99.90;;;;;;5074605;28;20177;-47
2023/06/12 06:27:35;;;;;;;10.43;5.35;;;23.00;99.90;;;;;;5074969;28;20170;-47
2023/06/12 06:30:02;;;;;;;11.43;5.65;;;23.20;99.90;;;;;;5075109;28;20162;-48
2023/06/12 06:32:28;;;;;;;6.00;5.40;;;23.20;99.90;;;;;;5074960;28;20218;-48
2023/06/12 06:34:55;;;;;;;8.95;5.50;;;23.20;99.90;;;;;;5074562;28;20705;-48
2023/06/12 06:37:20;;;;;;;8.13;5.07;;;23.30;99.90;;;;;;5074697;28;20551;-48
2023/06/12 06:39:46;;;;;;;9.93;5.72;;;23.10;99.90;;;;;;5074383;28;20158;-47
2023/06/12 06:42:12;;;;;;;7.28;5.60;;;23.20;99.90;;;;;;5074657;28;20220;-48
2023/06/12 06:44:38;;;;;;;7.22;5.55;;;23.10;99.90;;;;;;5074428;28;20514;-48
2023/06/12 06:47:04;;;;;;;6.97;5.22;;;23.40;99.90;;;;;;5074402;28;20224;-48
2023/06/12 06:49:30;;;;;;;12.18;6.03;;;23.80;99.90;;;;;;5084527;28;20507;-49
2023/06/12 06:51:56;;;;;;;9.75;6.18;;;;;;;;;;5092951;28;20602;-50
2023/06/12 06:54:21;;;;;;;11.05;6.00;;;23.80;99.90;;;;;;5092523;28;20161;-50
2023/06/12 06:56:48;;;;;;;13.20;5.80;;;23.50;99.90;;;;;;5092649;28;20176;-50
2023/06/12 06:59:17;;;;;;;8.40;4.97;;;23.90;99.90;;;;;;5092642;28;20181;-49
2023/06/12 07:01:43;;;;;;;12.38;5.75;;;;;;;;;;5092514;28;20207;-50
2023/06/12 07:04:09;;;;;;;11.00;5.32;;;24.10;99.90;;;;;;5092710;28;20169;-50
2023/06/12 07:06:34;;;;;;;9.80;5.38;;;24.30;99.90;;;;;;5092640;28;20176;-49
2023/06/12 07:09:00;;;;;;;7.97;5.55;;;24.10;99.90;;;;;;5092546;28;20221;-49
2023/06/12 07:11:27;;;;;;;8.40;4.90;;;24.20;99.90;;;;;;5092458;28;20258;-51
2023/06/12 07:13:53;;;;;;;6.93;4.90;;;;;;;;;;5092256;28;20192;-47
2023/06/12 07:16:19;;;;;;;6.32;5.25;;;;;;;;;;5091975;28;20197;-49
2023/06/12 07:18:45;;;;;;;12.10;5.55;;;;;;;;;;5092134;28;20248;-51
2023/06/12 07:21:11;;;;;;;6.32;5.65;;;24.70;99.90;;;;;;5092047;28;20209;-49
2023/06/12 07:23:37;;;;;;;8.55;4.68;;;24.50;99.90;;;;;;5092104;28;20176;-50
2023/06/12 07:26:03;;;;;;;6.32;5.45;;;;;;;;;;5092012;28;20244;-50
2023/06/12 07:28:28;;;;;;;5.93;5.03;;;24.80;99.90;;;;;;5092328;28;20231;-51
2023/06/12 07:30:54;;;;;;;5.07;4.57;;;24.80;99.90;;;;;;5092058;28;20222;-51
2023/06/12 07:33:20;;;;;;;7.93;5.32;;;;;;;;;;5091217;28;20169;-51
2023/06/12 07:35:46;;;;;;;18.17;5.40;;;25.20;99.90;;;;;;5092054;28;20560;-51
2023/06/12 07:38:12;;;;;;;8.00;4.80;;;25.30;98.80;;;;;;5092227;28;20252;-48
2023/06/12 07:40:38;;;;;;;6.90;5.30;;;25.30;98.10;;;;;;5092770;28;20196;-48
2023/06/12 07:43:04;;;;;;;6.82;5.35;;;25.00;99.20;;;;;;5093582;28;20663;-49
2023/06/12 07:45:30;;;;;;;8.85;5.07;;;;;;;;;;5091551;28;20659;-45
2023/06/12 07:47:57;;;;;;;6.90;5.07;;;25.80;98.90;;;;;;5091865;28;20176;-51
2023/06/12 07:50:23;;;;;;;9.85;5.80;;;25.90;96.60;;;;;;5091625;28;20629;-48
2023/06/12 07:52:49;;;;;;;7.03;5.20;;;25.90;96.60;;;;;;5091377;28;20257;-46
2023/06/12 07:55:16;;;;;;;5.68;5.07;;;26.00;96.50;;;;;;5091490;28;20251;-45
2023/06/12 07:57:42;;;;;;;5.78;4.80;;;26.10;96.00;;;;;;5091667;28;20173;-48
2023/06/12 08:00:08;;;;;;;8.80;5.30;;;;;;;;;;5091559;28;20207;-46
2023/06/12 08:02:35;;;;;;;7.35;4.47;;;26.20;95.40;;;;;;5091521;28;20180;-47
2023/06/12 08:05:03;;;;;;;7.18;4.50;;;26.50;95.10;;;;;;5091456;28;20173;-48
2023/06/12 08:07:30;;;;;;;6.10;4.72;;;26.10;94.70;;;;;;5091486;28;20274;-48
2023/06/12 08:09:56;;;;;;;5.70;5.05;;;26.50;94.20;;;;;;5091405;28;20234;-46
2023/06/12 08:12:22;;;;;;;6.35;4.75;;;26.50;94.50;;;;;;5091226;28;20982;-49
2023/06/12 08:14:49;;;;;;;9.48;5.28;;;26.20;93.90;;;;;;5090860;28;20523;-50
2023/06/12 08:17:15;;;;;;;5.82;5.10;;;26.10;93.70;;;;;;5091151;28;20249;-47
2023/06/12 08:19:41;;;;;;;5.68;5.05;;;26.70;93.10;;;;;;5090839;28;20600;-49
2023/06/12 08:22:08;;;;;;;5.68;4.53;;;26.70;92.70;;;;;;5091032;28;20176;-49
2023/06/12 08:24:35;;;;;;;7.13;5.07;;;26.70;92.90;;;;;;5091172;28;20169;-49
2023/06/12 08:27:02;;;;;;;5.38;4.82;;;26.90;92.70;;;;;;5091244;28;20208;-49
2023/06/12 08:29:28;;;;;;;6.78;5.10;;;26.80;91.80;;;;;;5091505;28;20183;-49
2023/06/12 08:31:54;;;;;;;6.18;4.35;;;26.90;93.20;;;;;;5090788;28;20161;-49
2023/06/12 08:34:24;;;;;;;5.72;4.93;;;26.90;93.20;;;;;;5090770;28;20180;-49
2023/06/12 08:36:53;;;;;;;6.65;5.20;;;26.90;92.90;;;;;;5090662;28;20156;-49
2023/06/12 08:39:18;;;;;;;10.15;5.68;;;27.00;92.60;;;;;;5090657;28;20169;-49
2023/06/12 08:41:59;;;;;;;6.70;4.88;;;27.30;91.30;;;;;;5090314;28;20212;-49
2023/06/12 08:44:25;;;;;;;8.10;5.32;;;26.90;91.10;;;;;;5090478;28;20157;-49
2023/06/12 08:46:56;;;;;;;6.13;5.53;;;27.20;92.00;;;;;;5090544;28;20648;-49
2023/06/12 08:49:22;;;;;;;7.07;5.10;;;27.30;91.80;;;;;;5090459;28;21013;-49
2023/06/12 08:51:51;;;;;;;5.97;4.78;;;27.30;92.30;;;;;;5090399;28;20252;-49
2023/06/12 08:54:17;;;;;;;6.78;5.10;;;27.50;91.60;;;;;;5090376;28;20164;-49
2023/06/12 08:56:45;;;;;;;6.00;4.97;;;27.80;91.20;;;;;;5090340;28;20180;-49
2023/06/12 08:59:10;;;;;;;6.30;4.80;;;28.00;91.70;;;;;;5090577;28;20580;-49
2023/06/12 09:01:38;;;;;;;7.97;5.13;;;27.80;92.00;;;;;;5090387;28;20291;-49
2023/06/12 09:04:19;;;;;;;8.82;5.70;;;28.00;91.30;;;;;;5090391;28;20173;-48
2023/06/12 09:06:45;;;;;;;7.07;5.13;;;27.80;90.80;;;;;;5090123;28;20251;-49
2023/06/12 09:09:11;;;;;;;5.65;5.10;;;28.00;91.80;;;;;;5090408;28;20275;-49
2023/06/12 09:11:37;;;;;;;6.00;5.20;;;28.10;90.20;;;;;;5090197;28;20583;-49
2023/06/12 09:14:03;;;;;;;7.00;5.38;;;28.30;90.40;;;;;;5090076;28;20167;-49
2023/06/12 09:16:28;;;;;;;7.30;5.10;;;28.10;90.10;;;;;;5072293;28;20176;-49
2023/06/12 09:18:55;;;;;;;8.93;5.78;;;28.20;90.70;;;;;;5089923;28;20161;-49
2023/06/12 09:21:24;;;;;;;5.63;5.13;;;28.40;90.40;;;;;;5090131;28;20208;-49
2023/06/12 09:23:55;;;;;;;5.25;4.75;;;28.50;90.40;;;;;;5089889;28;20647;-49
2023/06/12 09:26:24;;;;;;;7.85;5.13;;;28.60;90.50;;;;;;5089627;28;20172;-50
2023/06/12 09:28:53;;;;;;;6.15;5.55;;;28.50;90.10;;;;;;5089683;28;20530;-49
2023/06/12 09:31:19;;;;;;;5.65;4.93;;;28.60;90.40;;;;;;5090135;28;20214;-48
2023/06/12 09:33:45;;;;;;;5.88;4.85;;;28.60;90.30;;;;;;5090075;28;20176;-49
2023/06/12 09:36:12;;;;;;;6.00;4.78;;;28.60;89.60;;;;;;5089485;28;20632;-49
2023/06/12 09:38:38;;;;;;;5.65;5.13;;;28.80;88.60;;;;;;5089865;28;20176;-49
2023/06/12 09:41:06;;;;;;;10.48;5.15;;;29.00;88.20;;;;;;5089658;28;20204;-49
2023/06/12 09:43:32;;;;;;;6.40;5.68;;;28.90;88.60;;;;;;5071838;28;20521;-49
2023/06/12 09:46:01;;;;;;;7.82;4.65;;;28.70;88.40;;;;;;5090436;28;20181;-49
2023/06/12 09:48:35;;;;;;;7.93;5.20;;;29.20;89.90;;;;;;5089685;28;20640;-49
2023/06/12 09:51:08;;;;;;;7.03;5.35;;;29.10;87.30;;;;;;5090025;28;20547;-49
2023/06/12 09:53:36;;;;;;;11.20;5.57;;;29.10;88.40;;;;;;5089663;28;20165;-49
2023/06/12 09:56:05;;;;;;;7.18;5.00;;;29.10;88.20;;;;;;5090136;28;20173;-49
2023/06/12 09:58:39;;;;;;;5.32;4.82;;;29.10;85.80;;;;;;5094201;28;20169;-49
2023/06/12 10:01:06;;;;;;;5.18;4.68;;;29.30;85.90;;;;;;5093611;28;20208;-49
2023/06/12 10:03:39;;;;;;;6.40;5.03;;;29.40;83.90;;;;;;5093405;28;20187;-49
2023/06/12 10:06:11;;;;;;;7.22;5.47;;;29.60;85.10;;;;;;5093829;28;20237;-49
2023/06/12 10:08:37;;;;;;;9.00;4.88;;;29.60;83.90;;;;;;5093400;28;20739;-49
2023/06/12 10:11:03;;;;;;;9.23;4.97;;;29.20;84.50;;;;;;5093390;28;20355;-49
2023/06/12 10:13:30;;;;;;;10.88;5.07;;;29.30;83.20;;;;;;5093375;28;20172;-49
2023/06/12 10:15:57;;;;;;;7.07;4.68;;;29.40;84.40;;;;;;5093399;28;20779;-49
2023/06/12 10:18:24;;;;;;;8.60;4.70;;;29.50;84.30;;;;;;5093539;28;20165;-49
2023/06/12 10:20:52;;;;;;;6.88;5.05;;;29.60;83.60;;;;;;5093237;28;20196;-49
2023/06/12 10:23:19;;;;;;;5.85;4.80;;;29.40;81.20;;;;;;5092340;28;20171;-49
2023/06/12 10:25:47;;;;;;;5.85;4.80;;;29.50;81.10;;;;;;5093595;28;20177;-49
2023/06/12 10:28:13;;;;;;;5.30;4.80;;;29.60;80.10;;;;;;5093302;28;20161;-48
2023/06/12 10:31:11;;;;;;;7.18;4.72;;;29.80;79.70;;;;;;5093187;28;20173;-49
2023/06/12 10:33:38;;;;;;;5.50;4.80;;;30.00;79.00;;;;;;5093119;28;20161;-49
2023/06/12 10:36:11;;;;;;;6.03;4.57;;;29.90;78.30;;;;;;5093024;28;20172;-49
2023/06/12 10:38:59;;;;;;;6.32;4.70;;;30.00;78.70;;;;;;5092962;28;20165;-49
2023/06/12 10:41:32;;;;;;;7.03;4.90;;;30.10;78.00;;;;;;5092746;28;20287;-49
2023/06/12 10:43:58;;;;;;;5.22;4.78;;;29.60;77.40;;;;;;5093238;28;20161;-49
2023/06/12 10:46:23;;;;;;;5.57;4.68;;;30.30;76.90;;;;;;5092688;28;20602;-50
2023/06/12 10:48:49;;;;;;;5.38;4.50;;;30.50;78.40;;;;;;5092831;28;20160;-49
2023/06/12 10:51:14;;;;;;;5.07;4.30;;;30.60;77.20;;;;;;5092710;28;20527;-49
2023/06/12 10:53:46;;;;;;;5.80;4.90;;;30.10;75.30;;;;;;5092895;28;20172;-49
2023/06/12 10:56:12;;;;;;;4.82;4.40;;;30.00;74.10;;;;;;5092647;28;20183;-49
2023/06/12 10:58:41;;;;;;;5.43;4.80;;;30.20;74.30;;;;;;5092833;28;20636;-49
2023/06/12 11:01:14;;;;;;;4.75;4.20;;;30.40;74.40;;;;;;5092276;28;20205;-49
2023/06/12 11:03:42;;;;;;;5.40;4.90;;;30.70;75.20;;;;;;5092386;28;20652;-49
2023/06/12 11:06:16;;;;;;;7.07;4.30;;;30.60;74.60;;;;;;5092824;28;20181;-49
2023/06/12 11:08:43;;;;;;;9.23;4.82;;;30.70;76.00;;;;;;5091031;28;20227;-49
2023/06/12 11:11:10;;;;;;;8.02;4.63;;;31.10;75.20;;;;;;5092316;28;20172;-50
2023/06/12 11:13:40;;;;;;;4.97;4.57;;;31.00;74.60;;;;;;5092127;28;20165;-49
2023/06/12 11:16:06;;;;;;;9.60;5.05;;;30.80;74.40;;;;;;5092288;28;20724;-49
2023/06/12 11:18:31;;;;;;;5.25;4.47;;;31.00;75.30;;;;;;5092631;28;20173;-49
2023/06/12 11:20:57;;;;;;;5.28;4.70;;;31.10;73.10;;;;;;5092559;28;20212;-49
2023/06/12 11:23:24;;;;;;;4.50;4.20;;;30.70;70.80;;;;;;5092151;28;20651;-49
2023/06/12 11:25:53;;;;;;;7.32;4.43;;;31.00;70.50;;;;;;5092494;28;20172;-49
2023/06/12 11:28:23;;;;;;;5.72;5.00;;;31.20;71.40;;;;;;5092060;28;20177;-49
2023/06/12 11:30:53;;;;;;;7.50;4.57;;;31.10;71.70;;;;;;5092109;28;20179;-49
2023/06/12 11:33:20;;;;;;;12.07;4.78;;;31.30;71.30;;;;;;5091954;28;20165;-49
2023/06/12 11:35:47;;;;;;;4.80;4.40;;;31.70;70.60;;;;;;5092118;28;20175;-49
2023/06/12 11:38:14;;;;;;;5.78;5.18;;;31.60;70.80;;;;;;5091912;28;20157;-48
2023/06/12 11:40:41;;;;;;;5.20;4.70;;;31.10;71.10;;;;;;5091583;28;20195;-49
2023/06/12 11:43:07;;;;;;;5.07;4.57;;;31.10;68.70;;;;;;5092016;28;20212;-49
2023/06/12 11:45:33;;;;;;;7.35;5.18;;;31.10;71.30;;;;;;5091632;28;20168;-49
2023/06/12 11:48:00;;;;;;;6.10;4.75;;;31.10;71.30;;;;;;5092121;28;20713;-49
2023/06/12 11:50:26;;;;;;;5.47;4.60;;;31.00;69.70;;;;;;5091827;28;20225;-48
2023/06/12 11:52:52;;;;;;;5.50;4.43;;;31.30;72.10;;;;;;5091572;28;20157;-48
2023/06/12 11:55:21;;;;;;;5.25;4.80;;;31.30;70.10;;;;;;5091378;28;20176;-49
2023/06/12 11:57:48;;;;;;;6.22;5.63;;;31.80;70.70;;;;;;5091443;28;20161;-49
2023/06/12 12:00:17;;;;;;;5.85;4.35;;;31.80;70.50;;;;;;5091442;28;20342;-49
2023/06/12 12:02:46;;;;;;;5.30;4.80;;;31.90;69.40;;;;;;5091456;28;20177;-49
2023/06/12 12:05:12;;;;;;;5.43;4.93;;;31.80;70.20;;;;;;5091439;28;20243;-48
2023/06/12 12:07:40;;;;;;;5.63;4.68;;;32.20;71.20;;;;;;5091171;28;20295;-49
2023/06/12 12:10:11;;;;;;;7.63;4.97;;;32.20;70.40;;;;;;5090261;28;20203;-48
2023/06/12 12:12:48;;;;;;;6.63;4.90;;;31.70;68.10;;;;;;5090862;28;20164;-49
2023/06/12 12:15:15;;;;;;;5.43;4.85;;;32.00;68.40;;;;;;5090889;28;20260;-49
2023/06/12 12:17:42;;;;;;;5.97;4.80;;;32.10;69.60;;;;;;5090726;28;20180;-48
2023/06/12 12:20:14;;;;;;;6.70;5.05;;;32.40;69.20;;;;;;5090573;28;20197;-49
2023/06/12 12:22:41;;;;;;;6.00;4.70;;;32.60;69.50;;;;;;5090552;28;20813;-50
2023/06/12 12:25:08;;;;;;;4.95;4.55;;;32.60;67.20;;;;;;5090823;28;20177;-49
2023/06/12 12:27:34;;;;;;;5.30;4.72;;;32.60;66.60;;;;;;5089545;28;20176;-49
2023/06/12 12:30:03;;;;;;;6.40;5.18;;;32.50;66.50;;;;;;5090945;28;20672;-49
2023/06/12 12:32:29;;;;;;;8.57;5.32;;;32.70;67.60;;;;;;5090959;28;20172;-49
2023/06/12 12:34:55;;;;;;;6.18;5.10;;;32.70;68.00;;;;;;5090757;28;20173;-49
2023/06/12 12:37:20;;;;;;;5.45;4.75;;;32.70;67.90;;;;;;5090349;28;20260;-49
2023/06/12 12:39:46;;;;;;;8.27;5.18;;;32.30;66.80;;;;;;5090153;28;20247;-49
2023/06/12 12:42:12;;;;;;;5.47;4.90;;;32.30;67.50;;;;;;5090044;28;20169;-50
2023/06/12 12:44:37;;;;;;;7.95;4.88;;;31.80;66.30;;;;;;5090668;28;20640;-49
2023/06/12 12:47:03;;;;;;;8.52;5.40;;;32.10;67.00;;;;;;5090437;28;20173;-49
2023/06/12 12:49:29;;;;;;;6.38;5.03;;;32.40;65.40;;;;;;5090736;28;20215;-49
2023/06/12 12:51:54;;;;;;;7.15;5.50;;;32.30;65.90;;;;;;5090326;28;20631;-49